ADDS METAR Data INFO
IDs: Format: Raw Decoded Include TAF

Data at: 2148 UTC 15 Dec 2017

K04W 152135Z AUTO 18005KT 10SM OVC037 M06/M11 A2978 RMK AO2
K04W 152115Z AUTO 19003KT 10SM SCT037 BKN045 M06/M11 A2978 RMK AO2
K04W 152055Z AUTO 20003KT 10SM CLR M06/M11 A2978 RMK AO2
K04W 152035Z AUTO 20003KT 10SM SCT090 M06/M11 A2978 RMK AO2
K04W 152015Z AUTO 21005KT 10SM BKN090 M06/M11 A2978 RMK AO2
K04W 151955Z AUTO 22005KT 10SM OVC090 M06/M11 A2979 RMK AO2
K04W 151935Z AUTO 21006KT 10SM OVC090 M06/M11 A2980 RMK AO2
K04W 151915Z AUTO 22005KT 10SM OVC090 M06/M11 A2981 RMK AO2
K04W 151855Z AUTO 20004KT 10SM OVC090 M07/M11 A2981 RMK AO2
K04W 151835Z AUTO 18005KT 10SM OVC090 M07/M12 A2982 RMK AO2
K04W 151815Z AUTO 20003KT 10SM OVC090 M07/M12 A2983 RMK AO2
K04W 151755Z AUTO 25003KT 10SM OVC090 M07/M12 A2984 RMK AO2
K04W 151735Z AUTO 24005KT 10SM BKN090 M07/M12 A2985 RMK AO2
K04W 151715Z AUTO 25004KT 10SM SCT090 M07/M12 A2986 RMK AO2
K04W 151655Z AUTO 25003KT 10SM SCT019 BKN090 M07/M12 A2986 RMK AO2
K04W 151635Z AUTO 24003KT 10SM SCT019 BKN090 M07/M12 A2988 RMK AO2
K04W 151615Z AUTO 30003KT 10SM BKN019 OVC090 M08/M12 A2988 RMK AO2
K04W 151555Z AUTO 28004KT 10SM SCT019 BKN090 M08/M12 A2988 RMK AO2
K04W 151535Z AUTO 29003KT 10SM OVC019 M08/M12 A2986 RMK AO2
K04W 151515Z AUTO 30004KT 10SM OVC019 M08/M12 A2988 RMK AO2
K04W 151455Z AUTO 30005KT 10SM -SN OVC019 M08/M12 A2986 RMK AO2
K04W 151435Z AUTO 28004KT 10SM -SN OVC019 M08/M12 A2987 RMK AO2
K04W 151415Z AUTO 00000KT 7SM OVC019 M08/M12 A2987 RMK AO2
K04W 151355Z AUTO 00000KT 10SM -SN OVC019 M08/M12 A2988 RMK AO2
K04W 151335Z AUTO 00000KT 10SM OVC021 M08/M12 A2988 RMK AO2
K04W 151315Z AUTO 00000KT 10SM -SN OVC021 M08/M12 A2987 RMK AO2
K04W 151255Z AUTO 00000KT 10SM OVC021 M08/M12 A2988 RMK AO2
K04W 151235Z AUTO 32004KT 10SM OVC021 M08/M12 A2988 RMK AO2
K04W 151215Z AUTO 29004KT 10SM -SN OVC019 M08/M12 A2989 RMK AO2
K04W 151155Z AUTO 31004KT 10SM OVC019 M08/M12 A2989 RMK AO2
K04W 151135Z AUTO 32004KT 10SM -SN OVC019 M08/M12 A2990 RMK AO2
K04W 151115Z AUTO 28003KT 10SM OVC019 M08/M12 A2990 RMK AO2
K04W 151055Z AUTO 00000KT 7SM -SN OVC019 M08/M11 A2990 RMK AO2
K04W 151035Z AUTO 00000KT 10SM -SN OVC021 M08/M11 A2990 RMK AO2
K04W 151015Z AUTO 32003KT 10SM OVC021 M08/M11 A2991 RMK AO2
K04W 150955Z AUTO 00000KT 10SM -SN OVC021 M08/M11 A2991 RMK AO2
K04W 150935Z AUTO 33003KT 10SM -SN OVC021 M08/M11 A2991 RMK AO2
K04W 150915Z AUTO 32004KT 10SM OVC021 M08/M11 A2991 RMK AO2
K04W 150855Z AUTO 32004KT 10SM OVC021 M08/M11 A2991 RMK AO2
K04W 150835Z AUTO 32005KT 10SM -SN OVC021 M08/M12 A2991 RMK AO2
K04W 150815Z AUTO 34006KT 10SM OVC021 M08/M11 A2991 RMK AO2
K04W 150755Z AUTO 32009KT 10SM OVC021 M08/M12 A2992 RMK AO2
K04W 150735Z AUTO 31009G14KT 10SM BKN021 OVC038 M08/M11 A2991 RMK AO2
K04W 150715Z AUTO 32006KT 10SM SCT021 OVC038 M08/M11 A2991 RMK AO2
K04W 150655Z AUTO 31003KT 10SM SCT019 OVC040 M08/M11 A2991 RMK AO2
K04W 150635Z AUTO 31004KT 7SM -SN OVC019 M08/M10 A2992 RMK AO2
K04W 150616Z AUTO 31005KT 10SM BKN019 OVC043 M07/M10 A2993 RMK AO2
K04W 150555Z AUTO 30006KT 10SM -SN SCT021 OVC041 M07/M10 A2993 RMK AO2
K04W 150535Z AUTO 31007KT 10SM -SN OVC019 M07/M10 A2993 RMK AO2
K04W 150516Z AUTO 32007KT 10SM -SN OVC017 M07/M10 A2993 RMK AO2
K04W 150455Z AUTO 30005KT 7SM -SN OVC017 M06/M09 A2993 RMK AO2
K04W 150435Z AUTO 30005KT 10SM -SN OVC017 M06/M09 A2993 RMK AO2
K04W 150415Z AUTO 30005KT 10SM -SN OVC020 M06/M09 A2993 RMK AO2
K04W 150355Z AUTO 27007KT 7SM -SN OVC020 M06/M08 A2993 RMK AO2
K04W 150335Z AUTO 28007KT 7SM -SN OVC020 M06/M08 A2995 RMK AO2
K04W 150315Z AUTO 27006KT 2 1/2SM -SN OVC020 M06/M08 A2995 RMK AO2
K04W 150255Z AUTO 29007G14KT 3SM -SN OVC020 M06/M08 A2995 RMK AO2
K04W 150235Z AUTO 28004KT 10SM -SN OVC020 M06/M09 A2995 RMK AO2
K04W 150215Z AUTO 28005KT 10SM OVC022 M06/M10 A2996 RMK AO2
K04W 150155Z AUTO 30004KT 10SM OVC022 M06/M10 A2996 RMK AO2
K04W 150135Z AUTO 30007KT 10SM OVC022 M06/M10 A2997 RMK AO2
K04W 150115Z AUTO 28008KT 10SM -SN OVC022 M06/M09 A2997 RMK AO2
K04W 150055Z AUTO 24005KT 10SM OVC022 M06/M08 A2998 RMK AO2
K04W 150035Z AUTO 25004KT 10SM OVC026 M06/M09 A2998 RMK AO2
K04W 150015Z AUTO 25004KT 10SM OVC026 M07/M09 A2998 RMK AO2
K04W 142355Z AUTO 26004KT 10SM -SN OVC028 M07/M09 A2998 RMK AO2
K04W 142335Z AUTO 26004KT 10SM -SN OVC028 M07/M09 A2998 RMK AO2
K04W 142315Z AUTO 27004KT 7SM -SN OVC028 M06/M09 A2999 RMK AO2
K04W 142255Z AUTO 28003KT 7SM -SN OVC026 M06/M09 A2999 RMK AO2
K04W 142235Z AUTO 27004KT 5SM -SN OVC026 M06/M10 A2999 RMK AO2
K04W 142216Z AUTO 28005KT 10SM -SN OVC024 M06/M10 A2999 RMK AO2
K04W 142155Z AUTO 28006KT 10SM -SN OVC022 M06/M10 A2999 RMK AO2
K04W 142135Z AUTO 27005KT 10SM -SN OVC020 M06/M10 A2999 RMK AO2
K04W 142115Z AUTO 26008KT 10SM -SN OVC020 M06/M10 A2998 RMK AO2
K04W 142055Z AUTO 27008KT 10SM OVC020 M06/M10 A2997 RMK AO2
K04W 142035Z AUTO 29005KT 10SM -SN OVC020 M06/M10 A2997 RMK AO2
K04W 142015Z AUTO 28004KT 10SM OVC020 M06/M10 A2998 RMK AO2
K04W 141955Z AUTO 26006KT 10SM -SN OVC018 M06/M10 A2998 RMK AO2
K04W 141935Z AUTO 26003KT 7SM -SN OVC018 M06/M09 A2999 RMK AO2
K04W 141915Z AUTO 26005KT 10SM -SN OVC018 M06/M09 A2999 RMK AO2
K04W 141855Z AUTO 25005KT 10SM -SN BKN020 OVC048 M06/M10 A2999 RMK AO2
K04W 141835Z AUTO 26004KT 7SM -SN SCT018 BKN022 OVC050 M07/M10 A2999 RMK AO2
K04W 141815Z AUTO 26006KT 2SM -SN OVC016 M07/M09 A2999 RMK AO2
K04W 141755Z AUTO 28005KT 4SM -SN OVC014 M07/M10 A3000 RMK AO2
K04W 141735Z AUTO 27005KT 10SM -SN OVC012 M07/M10 A3001 RMK AO2
K04W 141715Z AUTO 27006KT 10SM -SN OVC012 M07/M10 A3001 RMK AO2
K04W 141655Z AUTO 27008KT 10SM OVC012 M07/M10 A3001 RMK AO2
K04W 141635Z AUTO 27005KT 10SM -SN OVC010 M07/M10 A3001 RMK AO2
K04W 141615Z AUTO 25006KT 10SM OVC010 M07/M10 A3001 RMK AO2
K04W 141555Z AUTO 26005KT 10SM OVC012 M07/M10 A3001 RMK AO2
K04W 141535Z AUTO 26004KT 10SM -SN OVC012 M07/M10 A3001 RMK AO2
K04W 141515Z AUTO 26005KT 10SM -SN OVC014 M08/M10 A3001 RMK AO2
K04W 141455Z AUTO 26005KT 10SM -SN OVC014 M08/M10 A3000 RMK AO2
K04W 141435Z AUTO 26004KT 10SM OVC014 M08/M10 A3000 RMK AO2
K04W 141415Z AUTO 23003KT 10SM OVC014 M08/M10 A3000 RMK AO2
K04W 141355Z AUTO 22003KT 10SM OVC016 M08/M10 A2999 RMK AO2
K04W 141335Z AUTO 00000KT 10SM OVC018 M08/M10 A2999 RMK AO2
K04W 141315Z AUTO 24003KT 10SM OVC020 M08/M10 A2999 RMK AO2
K04W 141255Z AUTO 24003KT 10SM SCT012 OVC020 M08/M10 A2999 RMK AO2
K04W 141235Z AUTO 24003KT 10SM BKN012 OVC022 M08/M10 A2999 RMK AO2
K04W 141215Z AUTO 00000KT 10SM BKN012 OVC022 M08/M10 A2998 RMK AO2
K04W 141155Z AUTO 28003KT 10SM OVC012 M08/M10 A2998 RMK AO2
K04W 141135Z AUTO 26003KT 10SM OVC014 M08/M09 A2998 RMK AO2
K04W 141115Z AUTO 27003KT 10SM OVC014 M08/M09 A2997 RMK AO2
K04W 141055Z AUTO 28003KT 10SM OVC016 M08/M09 A2998 RMK AO2
K04W 141035Z AUTO 00000KT 10SM OVC014 M08/M09 A2997 RMK AO2
K04W 141015Z AUTO 19003KT 10SM OVC014 M08/M09 A2997 RMK AO2
K04W 140955Z AUTO 00000KT 10SM OVC014 M08/M09 A2998 RMK AO2